sensor_id;sensor_type;location;lat;lon;timestamp;pressure;altitude;pressure_sealevel;temperature;humidity
9110;BME280;4590;51.462;6.692;2023-01-30T00:01:26;101675.69;;;5.11;67.90
9110;BME280;4590;51.462;6.692;2023-01-30T00:03:51;101680.31;;;5.10;67.93
9110;BME280;4590;51.462;6.692;2023-01-30T00:06:17;101658.84;;;5.14;67.79
9110;BME280;4590;51.462;6.692;2023-01-30T00:08:43;101655.03;;;5.15;67.74
9110;BME280;4590;51.462;6.692;2023-01-30T00:11:11;101633.22;;;5.15;68.18
9110;BME280;4590;51.462;6.692;2023-01-30T00:13:38;101640.31;;;5.16;68.17
9110;BME280;4590;51.462;6.692;2023-01-30T00:16:04;101649.91;;;5.18;68.32
9110;BME280;4590;51.462;6.692;2023-01-30T00:18:29;101644.19;;;5.20;67.81
9110;BME280;4590;51.462;6.692;2023-01-30T00:20:56;101651.88;;;5.23;68.05
9110;BME280;4590;51.462;6.692;2023-01-30T00:23:22;101638.00;;;5.24;68.16
9110;BME280;4590;51.462;6.692;2023-01-30T00:25:47;101614.00;;;5.26;68.30
9110;BME280;4590;51.462;6.692;2023-01-30T00:28:12;101612.94;;;5.27;68.70
9110;BME280;4590;51.462;6.692;2023-01-30T00:30:37;101612.94;;;5.27;68.54
9110;BME280;4590;51.462;6.692;2023-01-30T00:33:03;101624.19;;;5.31;68.62
9110;BME280;4590;51.462;6.692;2023-01-30T00:35:28;101613.84;;;5.33;68.07
9110;BME280;4590;51.462;6.692;2023-01-30T00:37:55;101594.50;;;5.35;68.62
9110;BME280;4590;51.462;6.692;2023-01-30T00:40:20;101581.94;;;5.34;69.07
9110;BME280;4590;51.462;6.692;2023-01-30T00:42:45;101577.84;;;5.36;68.25
9110;BME280;4590;51.462;6.692;2023-01-30T00:45:29;101577.59;;;5.38;68.67
9110;BME280;4590;51.462;6.692;2023-01-30T00:48:13;101574.63;;;5.39;68.97
9110;BME280;4590;51.462;6.692;2023-01-30T00:50:39;101585.53;;;5.39;69.05
9110;BME280;4590;51.462;6.692;2023-01-30T00:53:16;101576.53;;;5.39;69.17
9110;BME280;4590;51.462;6.692;2023-01-30T00:55:42;101567.34;;;5.45;68.95
9110;BME280;4590;51.462;6.692;2023-01-30T00:58:08;101562.47;;;5.47;69.00
9110;BME280;4590;51.462;6.692;2023-01-30T01:00:34;101572.56;;;5.46;69.16
9110;BME280;4590;51.462;6.692;2023-01-30T01:03:00;101573.06;;;5.43;69.88
9110;BME280;4590;51.462;6.692;2023-01-30T01:05:26;101564.13;;;5.48;69.09
9110;BME280;4590;51.462;6.692;2023-01-30T01:07:51;101569.88;;;5.51;69.05
9110;BME280;4590;51.462;6.692;2023-01-30T01:10:16;101558.69;;;5.53;69.30
9110;BME280;4590;51.462;6.692;2023-01-30T01:12:42;101553.25;;;5.53;69.28
9110;BME280;4590;51.462;6.692;2023-01-30T01:15:09;101556.19;;;5.46;71.81
9110;BME280;4590;51.462;6.692;2023-01-30T01:17:34;101539.66;;;5.58;69.52
9110;BME280;4590;51.462;6.692;2023-01-30T01:19:59;101542.41;;;5.58;69.38
9110;BME280;4590;51.462;6.692;2023-01-30T01:22:24;101536.94;;;5.58;70.13
9110;BME280;4590;51.462;6.692;2023-01-30T01:24:50;101542.97;;;5.60;70.03
9110;BME280;4590;51.462;6.692;2023-01-30T01:27:15;101540.81;;;5.62;69.36
9110;BME280;4590;51.462;6.692;2023-01-30T01:29:40;101531.88;;;5.67;69.76
9110;BME280;4590;51.462;6.692;2023-01-30T01:32:05;101534.59;;;5.67;70.05
9110;BME280;4590;51.462;6.692;2023-01-30T01:34:31;101536.94;;;5.58;70.78
9110;BME280;4590;51.462;6.692;2023-01-30T01:36:56;101532.97;;;5.66;70.42
9110;BME280;4590;51.462;6.692;2023-01-30T01:39:21;101541.44;;;5.69;70.35
9110;BME280;4590;51.462;6.692;2023-01-30T01:41:47;101548.56;;;5.70;70.17
9110;BME280;4590;51.462;6.692;2023-01-30T01:44:13;101544.00;;;5.76;70.49
9110;BME280;4590;51.462;6.692;2023-01-30T01:46:43;101536.63;;;5.76;70.13
9110;BME280;4590;51.462;6.692;2023-01-30T01:49:18;101526.03;;;5.80;69.95
9110;BME280;4590;51.462;6.692;2023-01-30T01:51:58;101525.19;;;5.79;70.76
9110;BME280;4590;51.462;6.692;2023-01-30T01:54:54;101510.72;;;5.79;70.77
9110;BME280;4590;51.462;6.692;2023-01-30T01:57:45;101503.63;;;5.83;70.50
9110;BME280;4590;51.462;6.692;2023-01-30T02:00:17;101502.88;;;5.87;70.24
9110;BME280;4590;51.462;6.692;2023-01-30T02:03:03;101496.84;;;5.85;70.98
9110;BME280;4590;51.462;6.692;2023-01-30T02:05:31;101487.91;;;5.90;70.56
9110;BME280;4590;51.462;6.692;2023-01-30T02:08:10;101486.84;;;5.91;70.84
9110;BME280;4590;51.462;6.692;2023-01-30T02:13:13;101478.16;;;5.99;70.51
9110;BME280;4590;51.462;6.692;2023-01-30T02:15:38;101456.88;;;6.01;70.14
9110;BME280;4590;51.462;6.692;2023-01-30T02:18:04;101460.16;;;5.98;71.06
9110;BME280;4590;51.462;6.692;2023-01-30T02:34:54;101415.75;;;6.13;70.48
9110;BME280;4590;51.462;6.692;2023-01-30T02:40:43;101427.50;;;6.13;71.51
9110;BME280;4590;51.462;6.692;2023-01-30T02:43:27;101422.63;;;6.20;71.38
9110;BME280;4590;51.462;6.692;2023-01-30T02:46:20;101417.69;;;6.17;71.83
9110;BME280;4590;51.462;6.692;2023-01-30T02:49:15;101418.00;;;6.21;71.35
9110;BME280;4590;51.462;6.692;2023-01-30T02:51:45;101417.78;;;6.27;70.87
9110;BME280;4590;51.462;6.692;2023-01-30T02:54:12;101410.69;;;6.26;70.89
9110;BME280;4590;51.462;6.692;2023-01-30T02:56:52;101406.03;;;6.27;71.11
9110;BME280;4590;51.462;6.692;2023-01-30T02:59:25;101403.88;;;6.29;71.55
9110;BME280;4590;51.462;6.692;2023-01-30T03:04:32;101409.91;;;6.36;70.81
9110;BME280;4590;51.462;6.692;2023-01-30T03:09:43;101403.09;;;6.39;71.78
9110;BME280;4590;51.462;6.692;2023-01-30T03:15:03;101392.22;;;6.44;71.43
9110;BME280;4590;51.462;6.692;2023-01-30T03:17:31;101394.69;;;6.45;71.37
9110;BME280;4590;51.462;6.692;2023-01-30T03:19:57;101391.41;;;6.48;71.25
9110;BME280;4590;51.462;6.692;2023-01-30T03:22:23;101380.47;;;6.43;71.85
9110;BME280;4590;51.462;6.692;2023-01-30T03:24:50;101375.84;;;6.49;71.34
9110;BME280;4590;51.462;6.692;2023-01-30T03:27:17;101368.75;;;6.53;71.17
9110;BME280;4590;51.462;6.692;2023-01-30T03:29:43;101351.50;;;6.47;72.28
9110;BME280;4590;51.462;6.692;2023-01-30T03:32:08;101365.50;;;6.56;70.86
9110;BME280;4590;51.462;6.692;2023-01-30T03:34:35;101377.22;;;6.51;71.37
9110;BME280;4590;51.462;6.692;2023-01-30T03:37:00;101368.25;;;6.56;71.43
9110;BME280;4590;51.462;6.692;2023-01-30T03:39:26;101377.25;;;6.56;71.71
9110;BME280;4590;51.462;6.692;2023-01-30T03:41:52;101360.84;;;6.56;71.85
9110;BME280;4590;51.462;6.692;2023-01-30T03:44:17;101357.88;;;6.58;72.06
9110;BME280;4590;51.462;6.692;2023-01-30T03:46:43;101355.94;;;6.58;71.53
9110;BME280;4590;51.462;6.692;2023-01-30T03:49:08;101351.03;;;6.60;72.11
9110;BME280;4590;51.462;6.692;2023-01-30T03:51:34;101345.03;;;6.63;71.53
9110;BME280;4590;51.462;6.692;2023-01-30T03:53:59;101352.13;;;6.64;71.95
9110;BME280;4590;51.462;6.692;2023-01-30T03:56:25;101337.91;;;6.62;72.33
9110;BME280;4590;51.462;6.692;2023-01-30T03:58:50;101334.66;;;6.65;72.33
9110;BME280;4590;51.462;6.692;2023-01-30T04:01:15;101328.09;;;6.66;71.58
9110;BME280;4590;51.462;6.692;2023-01-30T04:03:41;101328.66;;;6.68;71.89
9110;BME280;4590;51.462;6.692;2023-01-30T04:06:06;101327.56;;;6.69;71.92
9110;BME280;4590;51.462;6.692;2023-01-30T04:08:31;101321.28;;;6.69;72.31
9110;BME280;4590;51.462;6.692;2023-01-30T04:10:57;101326.75;;;6.69;72.63
9110;BME280;4590;51.462;6.692;2023-01-30T04:13:22;101326.19;;;6.67;72.62
9110;BME280;4590;51.462;6.692;2023-01-30T04:15:47;101327.81;;;6.68;72.73
9110;BME280;4590;51.462;6.692;2023-01-30T04:18:12;101322.63;;;6.66;72.80
9110;BME280;4590;51.462;6.692;2023-01-30T04:20:38;101323.16;;;6.63;73.46
9110;BME280;4590;51.462;6.692;2023-01-30T04:23:03;101325.63;;;6.65;73.38
9110;BME280;4590;51.462;6.692;2023-01-30T04:25:28;101328.88;;;6.62;74.02
9110;BME280;4590;51.462;6.692;2023-01-30T04:27:54;101323.97;;;6.64;72.99
9110;BME280;4590;51.462;6.692;2023-01-30T04:30:19;101320.16;;;6.65;72.95
9110;BME280;4590;51.462;6.692;2023-01-30T04:32:44;101316.84;;;6.63;73.75
9110;BME280;4590;51.462;6.692;2023-01-30T04:35:10;101317.69;;;6.63;73.14
9110;BME280;4590;51.462;6.692;2023-01-30T04:37:35;101308.13;;;6.66;72.86
9110;BME280;4590;51.462;6.692;2023-01-30T04:40:00;101299.66;;;6.67;73.49
9110;BME280;4590;51.462;6.692;2023-01-30T04:42:25;101305.13;;;6.67;73.80
9110;BME280;4590;51.462;6.692;2023-01-30T04:44:51;101312.50;;;6.67;73.65
9110;BME280;4590;51.462;6.692;2023-01-30T04:47:16;101308.13;;;6.66;74.09
9110;BME280;4590;51.462;6.692;2023-01-30T04:49:42;101308.94;;;6.66;74.35
9110;BME280;4590;51.462;6.692;2023-01-30T04:52:07;101299.91;;;6.66;74.17
9110;BME280;4590;51.462;6.692;2023-01-30T04:54:32;101304.03;;;6.68;73.52
9110;BME280;4590;51.462;6.692;2023-01-30T04:56:58;101310.84;;;6.66;74.21
9110;BME280;4590;51.462;6.692;2023-01-30T04:59:23;101306.47;;;6.65;74.14
9110;BME280;4590;51.462;6.692;2023-01-30T05:01:48;101298.00;;;6.66;74.47
9110;BME280;4590;51.462;6.692;2023-01-30T05:04:14;101279.94;;;6.65;74.77
9110;BME280;4590;51.462;6.692;2023-01-30T05:06:39;101294.19;;;6.67;74.43
9110;BME280;4590;51.462;6.692;2023-01-30T05:09:05;101300.22;;;6.69;74.14
9110;BME280;4590;51.462;6.692;2023-01-30T05:11:30;101305.69;;;6.69;74.68
9110;BME280;4590;51.462;6.692;2023-01-30T05:13:57;101290.94;;;6.71;75.05
9110;BME280;4590;51.462;6.692;2023-01-30T05:16:22;101286.56;;;6.75;73.97
9110;BME280;4590;51.462;6.692;2023-01-30T05:18:48;101299.97;;;6.76;74.29
9110;BME280;4590;51.462;6.692;2023-01-30T05:21:19;101292.88;;;6.75;74.95
9110;BME280;4590;51.462;6.692;2023-01-30T05:23:45;101270.72;;;6.77;74.85
9110;BME280;4590;51.462;6.692;2023-01-30T05:26:12;101281.66;;;6.77;74.41
9110;BME280;4590;51.462;6.692;2023-01-30T05:28:38;101288.75;;;6.78;74.81
9110;BME280;4590;51.462;6.692;2023-01-30T05:31:06;101280.00;;;6.81;74.65
9110;BME280;4590;51.462;6.692;2023-01-30T05:33:32;101279.19;;;6.80;74.82
9110;BME280;4590;51.462;6.692;2023-01-30T05:35:58;101283.31;;;6.83;75.32
9110;BME280;4590;51.462;6.692;2023-01-30T05:38:23;101277.84;;;6.83;74.94
9110;BME280;4590;51.462;6.692;2023-01-30T05:41:03;101281.66;;;6.82;75.28
9110;BME280;4590;51.462;6.692;2023-01-30T05:43:30;101298.66;;;6.89;74.88
9110;BME280;4590;51.462;6.692;2023-01-30T05:45:57;101300.31;;;6.90;74.84
9110;BME280;4590;51.462;6.692;2023-01-30T05:48:23;101303.59;;;6.92;74.72
9110;BME280;4590;51.462;6.692;2023-01-30T05:50:50;101295.09;;;6.93;75.13
9110;BME280;4590;51.462;6.692;2023-01-30T05:53:16;101279.50;;;6.94;75.08
9110;BME280;4590;51.462;6.692;2023-01-30T05:55:42;101289.09;;;6.96;75.53
9110;BME280;4590;51.462;6.692;2023-01-30T05:58:08;101292.66;;;6.97;75.50
9110;BME280;4590;51.462;6.692;2023-01-30T06:00:33;101276.53;;;7.00;75.28
9110;BME280;4590;51.462;6.692;2023-01-30T06:02:58;101288.84;;;7.03;75.52
9110;BME280;4590;51.462;6.692;2023-01-30T06:05:24;101297.34;;;7.07;75.44
9110;BME280;4590;51.462;6.692;2023-01-30T06:07:49;101298.44;;;7.06;75.46
9110;BME280;4590;51.462;6.692;2023-01-30T06:10:14;101301.16;;;7.11;75.39
9110;BME280;4590;51.462;6.692;2023-01-30T06:12:41;101321.16;;;7.16;75.37
9110;BME280;4590;51.462;6.692;2023-01-30T06:15:06;101316.00;;;7.20;75.79
9110;BME280;4590;51.462;6.692;2023-01-30T06:17:32;101305.88;;;7.20;75.43
9110;BME280;4590;51.462;6.692;2023-01-30T06:19:57;101305.34;;;7.23;75.62
9110;BME280;4590;51.462;6.692;2023-01-30T06:22:22;101303.69;;;7.27;75.26
9110;BME280;4590;51.462;6.692;2023-01-30T06:24:48;101300.66;;;7.29;75.79
9110;BME280;4590;51.462;6.692;2023-01-30T06:27:13;101298.22;;;7.32;75.11
9110;BME280;4590;51.462;6.692;2023-01-30T06:29:38;101319.59;;;7.35;75.83
9110;BME280;4590;51.462;6.692;2023-01-30T06:32:04;101302.63;;;7.38;75.90
9110;BME280;4590;51.462;6.692;2023-01-30T06:34:29;101300.41;;;7.40;75.66
9110;BME280;4590;51.462;6.692;2023-01-30T06:36:54;101305.34;;;7.44;75.50
9110;BME280;4590;51.462;6.692;2023-01-30T06:39:20;101305.91;;;7.46;75.52
9110;BME280;4590;51.462;6.692;2023-01-30T06:41:45;101313.56;;;7.49;75.96
9110;BME280;4590;51.462;6.692;2023-01-30T06:44:10;101318.53;;;7.52;75.34
9110;BME280;4590;51.462;6.692;2023-01-30T06:46:36;101328.09;;;7.54;75.52
9110;BME280;4590;51.462;6.692;2023-01-30T06:49:01;101325.56;;;7.27;77.61
9110;BME280;4590;51.462;6.692;2023-01-30T06:51:26;101336.03;;;7.51;76.42
9110;BME280;4590;51.462;6.692;2023-01-30T06:53:52;101334.94;;;7.52;76.04
9110;BME280;4590;51.462;6.692;2023-01-30T06:56:17;101342.06;;;7.58;75.52
9110;BME280;4590;51.462;6.692;2023-01-30T06:58:43;101327.81;;;7.61;75.56
9110;BME280;4590;51.462;6.692;2023-01-30T07:01:09;101326.47;;;7.63;75.70
9110;BME280;4590;51.462;6.692;2023-01-30T07:03:34;101330.59;;;7.66;75.75
9110;BME280;4590;51.462;6.692;2023-01-30T07:06:00;101329.22;;;7.68;75.46
9110;BME280;4590;51.462;6.692;2023-01-30T07:08:25;101337.16;;;7.70;75.40
9110;BME280;4590;51.462;6.692;2023-01-30T07:10:50;101333.59;;;7.64;75.71
9110;BME280;4590;51.462;6.692;2023-01-30T07:13:16;101320.44;;;7.61;75.78
9110;BME280;4590;51.462;6.692;2023-01-30T07:15:41;101328.13;;;7.69;75.31
9110;BME280;4590;51.462;6.692;2023-01-30T07:18:07;101324.28;;;7.70;75.35
9110;BME280;4590;51.462;6.692;2023-01-30T07:20:32;101325.66;;;7.68;75.24
9110;BME280;4590;51.462;6.692;2023-01-30T07:22:58;101332.22;;;7.67;75.30
9110;BME280;4590;51.462;6.692;2023-01-30T07:25:25;101330.59;;;7.66;74.90
9110;BME280;4590;51.462;6.692;2023-01-30T07:27:52;101331.13;;;7.68;74.69
9110;BME280;4590;51.462;6.692;2023-01-30T07:30:17;101327.81;;;7.56;75.01
9110;BME280;4590;51.462;6.692;2023-01-30T07:32:43;101342.91;;;7.63;74.98
9110;BME280;4590;51.462;6.692;2023-01-30T07:35:08;101356.31;;;7.60;74.67
9110;BME280;4590;51.462;6.692;2023-01-30T07:37:34;101356.84;;;7.62;74.87
9110;BME280;4590;51.462;6.692;2023-01-30T07:39:59;101360.41;;;7.62;74.38
9110;BME280;4590;51.462;6.692;2023-01-30T07:42:24;101362.34;;;7.62;74.56
9110;BME280;4590;51.462;6.692;2023-01-30T07:44:49;101358.22;;;7.54;74.53
9110;BME280;4590;51.462;6.692;2023-01-30T07:47:15;101360.13;;;7.59;74.29
9110;BME280;4590;51.462;6.692;2023-01-30T07:49:40;101360.69;;;7.61;74.03
9110;BME280;4590;51.462;6.692;2023-01-30T07:52:05;101376.84;;;7.62;74.10
9110;BME280;4590;51.462;6.692;2023-01-30T07:54:30;101366.44;;;7.64;74.26
9110;BME280;4590;51.462;6.692;2023-01-30T07:56:56;101373.59;;;7.65;73.84
9110;BME280;4590;51.462;6.692;2023-01-30T07:59:21;101378.22;;;7.65;74.27
9110;BME280;4590;51.462;6.692;2023-01-30T08:01:46;101379.31;;;7.64;74.02
9110;BME280;4590;51.462;6.692;2023-01-30T08:04:11;101376.59;;;7.64;73.57
9110;BME280;4590;51.462;6.692;2023-01-30T08:06:37;101381.25;;;7.63;73.35
9110;BME280;4590;51.462;6.692;2023-01-30T08:09:04;101388.63;;;7.58;73.92
9110;BME280;4590;51.462;6.692;2023-01-30T08:11:30;101376.59;;;7.69;73.51
9110;BME280;4590;51.462;6.692;2023-01-30T08:13:55;101376.59;;;7.74;73.37
9110;BME280;4590;51.462;6.692;2023-01-30T08:16:20;101371.66;;;7.76;73.47
9110;BME280;4590;51.462;6.692;2023-01-30T08:18:46;101372.50;;;7.82;73.08
9110;BME280;4590;51.462;6.692;2023-01-30T08:21:11;101376.06;;;7.82;72.84
9110;BME280;4590;51.462;6.692;2023-01-30T08:23:36;101390.59;;;7.83;73.10
9110;BME280;4590;51.462;6.692;2023-01-30T08:26:03;101390.06;;;7.86;72.64
9110;BME280;4590;51.462;6.692;2023-01-30T08:28:29;101382.34;;;7.78;73.05
9110;BME280;4590;51.462;6.692;2023-01-30T08:30:54;101390.06;;;7.86;72.33
9110;BME280;4590;51.462;6.692;2023-01-30T08:33:20;101401.53;;;7.88;72.14
9110;BME280;4590;51.462;6.692;2023-01-30T08:35:46;101407.84;;;7.93;71.88
9110;BME280;4590;51.462;6.692;2023-01-30T08:38:12;101404.84;;;7.95;71.88
9110;BME280;4590;51.462;6.692;2023-01-30T08:40:37;101397.44;;;7.95;71.69
9110;BME280;4590;51.462;6.692;2023-01-30T08:43:03;101408.44;;;8.00;71.52
9110;BME280;4590;51.462;6.692;2023-01-30T08:45:29;101416.06;;;8.03;71.35
9110;BME280;4590;51.462;6.692;2023-01-30T08:47:59;101435.81;;;8.05;70.98
9110;BME280;4590;51.462;6.692;2023-01-30T08:50:25;101438.00;;;8.08;70.64
9110;BME280;4590;51.462;6.692;2023-01-30T08:52:50;101440.50;;;8.10;70.89
9110;BME280;4590;51.462;6.692;2023-01-30T08:55:15;101439.94;;;8.13;70.92
9110;BME280;4590;51.462;6.692;2023-01-30T08:57:42;101442.41;;;8.15;71.00
9110;BME280;4590;51.462;6.692;2023-01-30T09:00:07;101433.66;;;8.18;70.55
9110;BME280;4590;51.462;6.692;2023-01-30T09:02:33;101415.28;;;8.18;70.26
9110;BME280;4590;51.462;6.692;2023-01-30T09:04:58;101401.28;;;8.20;70.13
9110;BME280;4590;51.462;6.692;2023-01-30T09:07:24;101401.00;;;8.21;69.90
9110;BME280;4590;51.462;6.692;2023-01-30T09:09:49;101412.81;;;8.17;70.18
9110;BME280;4590;51.462;6.692;2023-01-30T09:12:14;101413.66;;;8.32;70.34
9110;BME280;4590;51.462;6.692;2023-01-30T09:14:39;101419.97;;;8.43;70.15
9110;BME280;4590;51.462;6.692;2023-01-30T09:17:05;101407.31;;;8.52;70.00
9110;BME280;4590;51.462;6.692;2023-01-30T09:19:30;101421.88;;;8.63;69.73
9110;BME280;4590;51.462;6.692;2023-01-30T09:21:56;101426.25;;;8.64;69.37
9110;BME280;4590;51.462;6.692;2023-01-30T09:24:22;101430.34;;;8.76;69.20
9110;BME280;4590;51.462;6.692;2023-01-30T09:26:52;101439.09;;;8.84;68.73
9110;BME280;4590;51.462;6.692;2023-01-30T09:29:18;101443.47;;;8.90;68.17
9110;BME280;4590;51.462;6.692;2023-01-30T09:31:43;101439.88;;;8.99;67.79
9110;BME280;4590;51.462;6.692;2023-01-30T09:34:08;101458.00;;;9.05;67.55
9110;BME280;4590;51.462;6.692;2023-01-30T09:36:34;101446.72;;;9.12;66.06
9110;BME280;4590;51.462;6.692;2023-01-30T09:38:59;101452.53;;;8.95;66.17
9110;BME280;4590;51.462;6.692;2023-01-30T09:41:35;101463.16;;;9.17;66.32
9110;BME280;4590;51.462;6.692;2023-01-30T09:46:54;101455.03;;;8.76;64.03
9110;BME280;4590;51.462;6.692;2023-01-30T09:49:28;101459.59;;;9.17;65.02
9110;BME280;4590;51.462;6.692;2023-01-30T09:55:15;101448.19;;;8.74;63.27
9110;BME280;4590;51.462;6.692;2023-01-30T09:57:42;101465.69;;;9.08;64.47
9110;BME280;4590;51.462;6.692;2023-01-30T10:00:10;101450.63;;;8.86;61.93
9110;BME280;4590;51.462;6.692;2023-01-30T10:03:12;101472.56;;;8.96;63.41
9110;BME280;4590;51.462;6.692;2023-01-30T10:06:14;101477.25;;;8.70;62.90
9110;BME280;4590;51.462;6.692;2023-01-30T10:08:52;101470.94;;;8.90;63.91
9110;BME280;4590;51.462;6.692;2023-01-30T10:11:49;101471.47;;;8.87;63.87
9110;BME280;4590;51.462;6.692;2023-01-30T10:20:09;101481.09;;;8.69;62.59
9110;BME280;4590;51.462;6.692;2023-01-30T10:23:01;101485.78;;;8.78;62.85
9110;BME280;4590;51.462;6.692;2023-01-30T10:28:04;101476.16;;;8.81;63.04
9110;BME280;4590;51.462;6.692;2023-01-30T10:30:32;101475.34;;;8.70;63.18
9110;BME280;4590;51.462;6.692;2023-01-30T10:33:25;101471.22;;;8.73;62.61
9110;BME280;4590;51.462;6.692;2023-01-30T10:36:12;101487.66;;;8.83;62.60
9110;BME280;4590;51.462;6.692;2023-01-30T10:38:51;101475.88;;;8.72;62.38
9110;BME280;4590;51.462;6.692;2023-01-30T10:41:36;101471.50;;;8.66;61.83
9110;BME280;4590;51.462;6.692;2023-01-30T10:44:13;101466.84;;;8.77;62.15
9110;BME280;4590;51.462;6.692;2023-01-30T10:52:34;101487.69;;;8.53;61.00
9110;BME280;4590;51.462;6.692;2023-01-30T10:58:26;101487.13;;;8.71;62.41
9110;BME280;4590;51.462;6.692;2023-01-30T11:00:58;101478.34;;;8.84;62.04
9110;BME280;4590;51.462;6.692;2023-01-30T11:03:32;101486.59;;;8.79;61.39
9110;BME280;4590;51.462;6.692;2023-01-30T11:06:02;101486.03;;;8.92;62.13
9110;BME280;4590;51.462;6.692;2023-01-30T11:08:31;101480.00;;;8.75;61.11
9110;BME280;4590;51.462;6.692;2023-01-30T11:10:57;101489.00;;;9.01;61.98
9110;BME280;4590;51.462;6.692;2023-01-30T11:13:28;101496.16;;;8.87;61.73
9110;BME280;4590;51.462;6.692;2023-01-30T11:15:57;101495.91;;;8.93;61.84
9110;BME280;4590;51.462;6.692;2023-01-30T11:18:23;101484.34;;;9.01;61.79
9110;BME280;4590;51.462;6.692;2023-01-30T11:21:04;101486.59;;;8.79;60.21
9110;BME280;4590;51.462;6.692;2023-01-30T11:23:33;101494.78;;;9.04;61.52
9110;BME280;4590;51.462;6.692;2023-01-30T11:26:01;101486.31;;;8.70;60.91
9110;BME280;4590;51.462;6.692;2023-01-30T11:28:26;101501.09;;;9.10;60.98
9110;BME280;4590;51.462;6.692;2023-01-30T11:30:57;101503.31;;;8.88;61.04
9110;BME280;4590;51.462;6.692;2023-01-30T11:33:32;101495.06;;;8.88;60.04
9110;BME280;4590;51.462;6.692;2023-01-30T11:36:06;101509.34;;;8.95;60.35
9110;BME280;4590;51.462;6.692;2023-01-30T11:38:57;101485.47;;;8.95;59.86
9110;BME280;4590;51.462;6.692;2023-01-30T11:41:22;101485.72;;;9.09;60.22
9110;BME280;4590;51.462;6.692;2023-01-30T11:43:48;101489.28;;;9.09;59.95
9110;BME280;4590;51.462;6.692;2023-01-30T11:46:18;101508.78;;;9.08;60.15
9110;BME280;4590;51.462;6.692;2023-01-30T11:48:55;101498.34;;;9.05;59.28
9110;BME280;4590;51.462;6.692;2023-01-30T11:51:23;101503.81;;;9.15;60.08
9110;BME280;4590;51.462;6.692;2023-01-30T11:53:56;101498.34;;;9.10;58.45
9110;BME280;4590;51.462;6.692;2023-01-30T11:56:34;101482.97;;;9.09;58.39
9110;BME280;4590;51.462;6.692;2023-01-30T11:59:04;101498.88;;;9.12;59.60
9110;BME280;4590;51.462;6.692;2023-01-30T12:01:33;101483.47;;;9.26;59.45
9110;BME280;4590;51.462;6.692;2023-01-30T12:04:00;101493.59;;;9.31;59.87
9110;BME280;4590;51.462;6.692;2023-01-30T12:06:31;101486.47;;;9.30;58.75
9110;BME280;4590;51.462;6.692;2023-01-30T12:08:58;101499.38;;;9.34;59.31
9110;BME280;4590;51.462;6.692;2023-01-30T12:11:43;101497.47;;;9.25;59.03
9110;BME280;4590;51.462;6.692;2023-01-30T12:14:31;101497.16;;;9.41;58.35
9110;BME280;4590;51.462;6.692;2023-01-30T12:17:07;101500.44;;;9.43;58.71
9110;BME280;4590;51.462;6.692;2023-01-30T12:23:04;101506.72;;;9.49;58.83
9110;BME280;4590;51.462;6.692;2023-01-30T12:25:51;101496.00;;;9.47;58.59
9110;BME280;4590;51.462;6.692;2023-01-30T12:31:01;101494.34;;;9.52;58.15
9110;BME280;4590;51.462;6.692;2023-01-30T12:33:32;101496.28;;;9.56;58.27
9110;BME280;4590;51.462;6.692;2023-01-30T12:36:16;101497.09;;;9.52;58.08
9110;BME280;4590;51.462;6.692;2023-01-30T12:38:56;101499.91;;;9.41;57.45
9110;BME280;4590;51.462;6.692;2023-01-30T12:41:30;101510.03;;;9.46;58.21
9110;BME280;4590;51.462;6.692;2023-01-30T12:46:49;101499.91;;;9.41;56.85
9110;BME280;4590;51.462;6.692;2023-01-30T12:50:03;101510.56;;;9.48;56.35
9110;BME280;4590;51.462;6.692;2023-01-30T12:55:17;101517.91;;;9.68;57.18
9110;BME280;4590;51.462;6.692;2023-01-30T12:57:50;101526.16;;;9.73;57.68
9110;BME280;4590;51.462;6.692;2023-01-30T13:03:28;101524.53;;;9.67;56.49
9110;BME280;4590;51.462;6.692;2023-01-30T13:06:20;101517.97;;;9.58;55.95
9110;BME280;4590;51.462;6.692;2023-01-30T13:09:14;101538.25;;;9.62;56.65
9110;BME280;4590;51.462;6.692;2023-01-30T13:11:52;101537.44;;;9.61;56.27
9110;BME280;4590;51.462;6.692;2023-01-30T13:14:38;101541.34;;;9.50;55.33
9110;BME280;4590;51.462;6.692;2023-01-30T13:17:20;101549.25;;;9.67;56.68
9110;BME280;4590;51.462;6.692;2023-01-30T13:20:02;101542.13;;;9.61;55.75
9110;BME280;4590;51.462;6.692;2023-01-30T13:22:38;101543.19;;;9.70;56.36
9110;BME280;4590;51.462;6.692;2023-01-30T13:25:11;101541.81;;;9.67;56.84
9110;BME280;4590;51.462;6.692;2023-01-30T13:27:51;101543.81;;;9.57;55.66
9110;BME280;4590;51.462;6.692;2023-01-30T13:30:18;101544.28;;;9.74;56.94
9110;BME280;4590;51.462;6.692;2023-01-30T13:32:46;101561.91;;;9.63;56.59
9110;BME280;4590;51.462;6.692;2023-01-30T13:35:17;101553.63;;;9.68;55.23
9110;BME280;4590;51.462;6.692;2023-01-30T13:37:46;101553.88;;;9.76;56.69
9110;BME280;4590;51.462;6.692;2023-01-30T13:40:29;101559.97;;;9.68;56.19
9110;BME280;4590;51.462;6.692;2023-01-30T13:43:02;101566.78;;;9.76;55.96
9110;BME280;4590;51.462;6.692;2023-01-30T13:45:34;101570.69;;;9.65;56.46
9110;BME280;4590;51.462;6.692;2023-01-30T13:48:16;101565.72;;;9.72;56.73
9110;BME280;4590;51.462;6.692;2023-01-30T13:51:40;101594.34;;;9.50;56.64
9110;BME280;4590;51.462;6.692;2023-01-30T13:54:41;101583.91;;;9.47;56.69
9110;BME280;4590;51.462;6.692;2023-01-30T14:00:25;101588.63;;;9.42;56.38
9110;BME280;4590;51.462;6.692;2023-01-30T14:08:23;101605.03;;;9.62;57.67
9110;BME280;4590;51.462;6.692;2023-01-30T14:10:52;101599.25;;;9.69;57.39
9110;BME280;4590;51.462;6.692;2023-01-30T14:13:21;101604.19;;;9.72;56.80
9110;BME280;4590;51.462;6.692;2023-01-30T14:15:53;101617.97;;;9.52;55.87
9110;BME280;4590;51.462;6.692;2023-01-30T14:18:22;101611.91;;;9.65;56.98
9110;BME280;4590;51.462;6.692;2023-01-30T14:20:50;101609.72;;;9.62;57.14
9110;BME280;4590;51.462;6.692;2023-01-30T14:23:22;101621.31;;;9.38;55.76
9110;BME280;4590;51.462;6.692;2023-01-30T14:25:53;101620.72;;;9.57;56.43
9110;BME280;4590;51.462;6.692;2023-01-30T14:30:48;101634.50;;;9.36;56.85
9110;BME280;4590;51.462;6.692;2023-01-30T14:35:47;101632.53;;;9.52;56.65
9110;BME280;4590;51.462;6.692;2023-01-30T14:38:20;101641.91;;;9.41;55.98
9110;BME280;4590;51.462;6.692;2023-01-30T14:56:59;101683.66;;;9.38;56.38
9110;BME280;4590;51.462;6.692;2023-01-30T14:59:38;101684.47;;;9.33;57.05
9110;BME280;4590;51.462;6.692;2023-01-30T15:07:16;101703.16;;;9.41;57.10
9110;BME280;4590;51.462;6.692;2023-01-30T15:09:59;101708.09;;;9.39;57.01
9110;BME280;4590;51.462;6.692;2023-01-30T15:15:25;101720.72;;;9.35;57.46
9110;BME280;4590;51.462;6.692;2023-01-30T15:18:18;101722.13;;;9.28;57.16
9110;BME280;4590;51.462;6.692;2023-01-30T15:26:29;101739.94;;;9.15;57.10